Terminal Aerodrome Forecast
Issued by NWS Mobile, AL

Home | Current Version | Previous Version | Text Only | Print | Product List | Glossary On
Versions: 1 2 3 4 5 6 7 8 9 10 11 12 13 14 15 16 17 18 19 20 21 22
000
FTUS44 KMOB 171353 AAB
TAFMOB
TAF AMD
KMOB 171353Z 1714/1812 15005KT 1/2SM FG OVC003
     FM171500 17005KT 2SM BR OVC005
     FM171600 18010KT P6SM FEW010 BKN030
     FM180300 16005KT 4SM BR SCT004 OVC015=

USA.gov is the U.S. government's official web portal to all federal, state and local government web resources and services.